createdAt,value
2018-11-03T00:01:45.028Z,5.60
2018-11-03T00:04:13.336Z,7.00
2018-11-03T00:06:41.628Z,8.23
2018-11-03T00:09:10.773Z,7.50
2018-11-03T00:11:39.405Z,7.40
2018-11-03T00:14:08.240Z,7.50
2018-11-03T00:16:36.896Z,7.50
2018-11-03T00:19:05.421Z,7.03
2018-11-03T00:21:33.736Z,7.00
2018-11-03T00:24:02.165Z,7.33
2018-11-03T00:26:30.500Z,7.37
2018-11-03T00:28:59.512Z,7.87
2018-11-03T00:31:27.912Z,7.30
2018-11-03T00:33:56.432Z,6.83
2018-11-03T00:36:24.723Z,7.87
2018-11-03T00:38:53.307Z,7.27
2018-11-03T00:41:21.628Z,7.27
2018-11-03T00:43:49.945Z,7.23
2018-11-03T00:46:18.249Z,7.00
2018-11-03T00:48:46.561Z,7.33
2018-11-03T00:51:14.864Z,8.17
2018-11-03T00:53:43.156Z,7.77
2018-11-03T00:56:11.492Z,7.53
2018-11-03T00:58:39.844Z,7.90
2018-11-03T01:01:08.132Z,7.37
2018-11-03T01:03:36.494Z,8.00
2018-11-03T01:06:05.023Z,8.37
2018-11-03T01:08:33.336Z,7.97
2018-11-03T01:11:01.670Z,7.70
2018-11-03T01:13:30.036Z,10.20
2018-11-03T01:15:58.464Z,11.27
2018-11-03T01:18:26.840Z,9.60
2018-11-03T01:20:55.207Z,11.03
2018-11-03T01:23:23.503Z,9.57
2018-11-03T01:25:51.887Z,7.23
2018-11-03T01:28:20.245Z,7.37
2018-11-03T01:30:48.557Z,7.60
2018-11-03T01:33:16.877Z,8.17
2018-11-03T01:35:45.214Z,7.40
2018-11-03T01:38:13.502Z,7.63
2018-11-03T01:40:41.836Z,8.10
2018-11-03T01:43:10.141Z,8.67
2018-11-03T01:45:38.552Z,8.43
2018-11-03T01:48:06.910Z,8.47
2018-11-03T01:50:35.317Z,9.50
2018-11-03T01:53:04.092Z,10.13
2018-11-03T01:55:32.735Z,11.37
2018-11-03T01:58:01.232Z,11.57
2018-11-03T02:00:29.552Z,12.67
2018-11-03T02:02:58.014Z,13.43
2018-11-03T02:05:26.314Z,14.63
2018-11-03T02:07:57.609Z,14.00
2018-11-03T02:10:26.029Z,12.07
2018-11-03T02:12:54.469Z,9.23
2018-11-03T02:15:22.804Z,8.13
2018-11-03T02:17:51.117Z,8.60
2018-11-03T02:20:19.440Z,8.77
2018-11-03T02:22:47.845Z,9.47
2018-11-03T02:25:16.148Z,12.40
2018-11-03T02:27:44.516Z,12.40
2018-11-03T02:30:13.417Z,12.40
2018-11-03T02:32:41.707Z,12.17
2018-11-03T02:35:11.443Z,13.20
2018-11-03T02:37:40.597Z,15.03
2018-11-03T02:40:10.546Z,15.00
2018-11-03T02:42:39.040Z,12.50
2018-11-03T02:45:08.290Z,12.53
2018-11-03T02:47:36.576Z,13.50
2018-11-03T02:50:06.638Z,16.30
2018-11-03T02:52:35.369Z,14.80
2018-11-03T02:55:04.322Z,15.77
2018-11-03T02:57:32.653Z,16.40
2018-11-03T03:00:01.105Z,24.70
2018-11-03T03:02:29.481Z,24.80
2018-11-03T03:04:57.933Z,11.53
2018-11-03T03:07:26.298Z,11.93
2018-11-03T03:09:54.627Z,11.00
2018-11-03T03:12:23.089Z,12.33
2018-11-03T03:14:51.426Z,13.27
2018-11-03T03:17:19.760Z,14.90
2018-11-03T03:19:48.072Z,15.10
2018-11-03T03:22:16.392Z,16.17
2018-11-03T03:24:44.721Z,17.07
2018-11-03T03:27:13.008Z,16.93
2018-11-03T03:29:41.447Z,18.23
2018-11-03T03:32:09.747Z,18.80
2018-11-03T03:34:38.039Z,17.20
2018-11-03T03:37:06.492Z,17.67
2018-11-03T03:39:34.809Z,19.60
2018-11-03T03:42:03.201Z,19.20
2018-11-03T03:44:31.525Z,19.23
2018-11-03T03:46:59.960Z,19.57
2018-11-03T03:49:28.265Z,18.87
2018-11-03T03:51:56.752Z,18.73
2018-11-03T03:54:25.058Z,20.67
2018-11-03T03:56:53.360Z,21.37
2018-11-03T03:59:21.972Z,21.17
2018-11-03T04:01:50.317Z,21.43
2018-11-03T04:04:18.633Z,21.47
2018-11-03T04:06:47.186Z,21.23
2018-11-03T04:09:15.506Z,21.90
2018-11-03T04:11:43.807Z,24.63
2018-11-03T04:14:12.309Z,22.60
2018-11-03T04:16:40.681Z,23.37
2018-11-03T04:19:09.175Z,23.77
2018-11-03T04:21:37.762Z,24.10
2018-11-03T04:24:06.149Z,23.93
2018-11-03T04:26:34.451Z,24.97
2018-11-03T04:29:02.901Z,25.23
2018-11-03T04:31:31.216Z,25.97
2018-11-03T04:33:59.838Z,25.67
2018-11-03T04:36:28.217Z,25.37
2018-11-03T04:38:56.525Z,25.07
2018-11-03T04:41:24.895Z,26.70
2018-11-03T04:43:53.240Z,26.43
2018-11-03T04:46:21.570Z,26.10
2018-11-03T04:48:54.153Z,26.73
2018-11-03T04:51:22.441Z,27.57
2018-11-03T04:53:50.765Z,25.87
2018-11-03T04:56:19.112Z,27.87
2018-11-03T04:58:47.453Z,27.40
2018-11-03T05:01:15.753Z,27.57
2018-11-03T05:03:44.085Z,28.60
2018-11-03T05:06:12.414Z,27.60
2018-11-03T05:08:40.685Z,28.47
2018-11-03T05:11:09.388Z,28.17
2018-11-03T05:13:37.876Z,28.03
2018-11-03T05:16:06.200Z,28.33
2018-11-03T05:18:34.536Z,30.20
2018-11-03T05:21:03.231Z,29.93
2018-11-03T05:23:31.508Z,29.57
2018-11-03T05:25:59.992Z,28.60
2018-11-03T05:28:28.289Z,29.87
2018-11-03T05:30:56.648Z,28.03
2018-11-03T05:33:25.002Z,28.77
2018-11-03T05:35:53.310Z,31.83
2018-11-03T05:38:21.688Z,29.23
2018-11-03T05:40:50.052Z,27.77
2018-11-03T05:43:18.362Z,30.77
2018-11-03T05:45:46.678Z,29.90
2018-11-03T05:48:15.089Z,30.40
2018-11-03T05:50:43.394Z,32.63
2018-11-03T05:53:11.933Z,31.03
2018-11-03T05:55:40.269Z,31.80
2018-11-03T05:58:08.617Z,29.80
2018-11-03T06:00:37.273Z,30.37
2018-11-03T06:03:06.644Z,30.80
2018-11-03T06:05:34.966Z,31.73
2018-11-03T06:08:03.352Z,30.03
2018-11-03T06:10:31.715Z,31.83
2018-11-03T06:13:00.141Z,30.27
2018-11-03T06:15:28.475Z,32.40
2018-11-03T06:17:56.780Z,32.27
2018-11-03T06:20:25.077Z,30.17
2018-11-03T06:22:53.425Z,31.73
2018-11-03T06:25:21.813Z,32.20
2018-11-03T06:27:50.251Z,32.53
2018-11-03T06:30:18.641Z,33.27
2018-11-03T06:32:46.988Z,32.53
2018-11-03T06:35:15.348Z,32.67
2018-11-03T06:37:43.686Z,32.40
2018-11-03T06:40:12.186Z,33.07
2018-11-03T06:42:41.268Z,32.43
2018-11-03T06:45:10.335Z,31.37
2018-11-03T06:47:38.939Z,33.40
2018-11-03T06:50:07.916Z,32.70
2018-11-03T06:52:36.331Z,31.87
2018-11-03T06:55:05.433Z,30.43
2018-11-03T06:57:33.748Z,48.10
2018-11-03T07:00:02.243Z,31.70
2018-11-03T07:02:30.589Z,31.83
2018-11-03T07:04:58.911Z,30.67
2018-11-03T07:07:27.276Z,31.03
2018-11-03T07:09:55.603Z,31.20
2018-11-03T07:12:24.020Z,30.67
2018-11-03T07:14:52.285Z,30.07
2018-11-03T07:17:20.755Z,31.13
2018-11-03T07:19:49.171Z,32.10
2018-11-03T07:22:17.478Z,32.23
2018-11-03T07:24:45.813Z,30.97
2018-11-03T07:27:14.205Z,31.20
2018-11-03T07:29:42.620Z,32.33
2018-11-03T07:32:11.077Z,31.30
2018-11-03T07:34:39.431Z,32.50
2018-11-03T07:37:07.958Z,30.87
2018-11-03T07:39:36.370Z,30.87
2018-11-03T07:42:05.088Z,31.03
2018-11-03T07:44:33.421Z,30.73
2018-11-03T07:47:01.743Z,29.80
2018-11-03T07:49:30.980Z,29.67
2018-11-03T07:51:59.388Z,30.20
2018-11-03T07:54:27.853Z,29.33
2018-11-03T07:56:56.194Z,30.63
2018-11-03T07:59:24.514Z,30.23
2018-11-03T08:01:52.996Z,30.13
2018-11-03T08:04:21.325Z,28.83
2018-11-03T08:06:49.649Z,29.07
2018-11-03T08:09:18.093Z,29.07
2018-11-03T08:11:46.453Z,30.20
2018-11-03T08:14:14.925Z,30.47
2018-11-03T08:16:43.342Z,30.80
2018-11-03T08:19:11.786Z,32.43
2018-11-03T08:21:40.146Z,32.87
2018-11-03T08:24:08.668Z,33.33
2018-11-03T08:26:37.190Z,31.27
2018-11-03T08:29:05.840Z,33.57
2018-11-03T08:31:34.238Z,32.70
2018-11-03T08:34:02.578Z,33.40
2018-11-03T08:36:30.870Z,31.80
2018-11-03T08:38:59.204Z,31.83
2018-11-03T08:41:27.522Z,31.43
2018-11-03T08:43:55.838Z,29.10
2018-11-03T08:46:24.158Z,29.50
2018-11-03T08:48:52.573Z,30.03
2018-11-03T08:51:20.904Z,29.23
2018-11-03T08:53:49.269Z,30.70
2018-11-03T08:56:17.588Z,28.63
2018-11-03T08:58:45.872Z,31.30
2018-11-03T09:01:14.205Z,30.83
2018-11-03T09:03:42.568Z,30.30
2018-11-03T09:06:11.001Z,29.37
2018-11-03T09:08:39.407Z,29.63
2018-11-03T09:11:07.832Z,28.63
2018-11-03T09:13:36.172Z,29.00
2018-11-03T09:16:04.520Z,29.27
2018-11-03T09:18:32.914Z,29.87
2018-11-03T09:21:01.324Z,31.20
2018-11-03T09:23:29.781Z,30.97
2018-11-03T09:25:58.153Z,29.33
2018-11-03T09:28:26.645Z,32.30
2018-11-03T09:30:55.012Z,30.33
2018-11-03T09:33:23.471Z,29.93
2018-11-03T09:35:51.872Z,35.03
2018-11-03T09:38:20.306Z,132.17
2018-11-03T09:40:48.630Z,31.40
2018-11-03T09:43:17.054Z,29.37
2018-11-03T09:45:45.403Z,27.93
2018-11-03T09:48:13.833Z,28.33
2018-11-03T09:50:42.602Z,29.57
2018-11-03T09:53:11.002Z,28.77
2018-11-03T09:55:39.299Z,28.73
2018-11-03T09:58:07.909Z,28.73
2018-11-03T10:00:36.393Z,28.63
2018-11-03T10:03:04.778Z,29.10
2018-11-03T10:05:33.120Z,29.47
2018-11-03T10:08:01.497Z,27.37
2018-11-03T10:10:32.821Z,28.87
2018-11-03T10:13:01.169Z,28.70
2018-11-03T10:15:29.474Z,28.23
2018-11-03T10:17:57.838Z,27.93
2018-11-03T10:20:26.180Z,27.83
2018-11-03T10:22:54.628Z,29.60
2018-11-03T10:25:23.115Z,27.47
2018-11-03T10:27:51.486Z,30.57
2018-11-03T10:30:20.000Z,27.73
2018-11-03T10:32:48.332Z,30.50
2018-11-03T10:35:16.711Z,28.20
2018-11-03T10:37:45.212Z,27.77
2018-11-03T10:40:15.816Z,29.30
2018-11-03T10:42:44.404Z,29.27
2018-11-03T10:45:16.972Z,31.00
2018-11-03T10:47:45.748Z,28.27
2018-11-03T10:50:16.064Z,28.93
2018-11-03T10:52:45.121Z,30.43
2018-11-03T10:55:14.753Z,30.30
2018-11-03T10:57:43.326Z,29.43
2018-11-03T11:00:19.329Z,29.83
2018-11-03T11:02:53.101Z,28.77
2018-11-03T11:05:26.909Z,29.43
2018-11-03T11:08:00.604Z,30.70
2018-11-03T11:10:34.461Z,40.10
2018-11-03T11:13:20.170Z,31.67
2018-11-03T11:15:49.290Z,30.47
2018-11-03T11:18:17.528Z,28.33
2018-11-03T11:20:45.817Z,28.33
2018-11-03T11:23:20.833Z,30.27
2018-11-03T11:25:49.112Z,29.00
2018-11-03T11:28:17.429Z,29.97
2018-11-03T11:30:46.270Z,27.67
2018-11-03T11:33:15.866Z,30.00
2018-11-03T11:35:44.161Z,27.93
2018-11-03T11:38:13.329Z,28.67
2018-11-03T11:40:42.189Z,29.93
2018-11-03T11:43:11.388Z,29.37
2018-11-03T11:45:40.431Z,29.33
2018-11-03T11:48:08.884Z,30.00
2018-11-03T11:50:37.233Z,30.43
2018-11-03T11:53:05.820Z,29.97
2018-11-03T11:55:34.133Z,29.43
2018-11-03T11:58:02.437Z,29.60
2018-11-03T12:00:30.832Z,28.33
2018-11-03T12:02:59.120Z,30.23
2018-11-03T12:05:27.417Z,28.60
2018-11-03T12:07:55.748Z,28.33
2018-11-03T12:10:24.059Z,27.43
2018-11-03T12:12:52.343Z,28.77
2018-11-03T12:15:20.696Z,30.20
2018-11-03T12:17:49.009Z,29.23
2018-11-03T12:20:17.296Z,28.20
2018-11-03T12:22:45.637Z,29.70
2018-11-03T12:25:13.944Z,28.47
2018-11-03T12:27:42.690Z,28.60
2018-11-03T12:30:13.724Z,29.90
2018-11-03T12:32:42.298Z,28.47
2018-11-03T12:35:10.916Z,28.70
2018-11-03T12:37:39.737Z,29.47
2018-11-03T12:40:10.085Z,28.33
2018-11-03T12:42:38.377Z,28.60
2018-11-03T12:45:07.301Z,28.80
2018-11-03T12:47:38.593Z,29.50
2018-11-03T12:50:08.501Z,30.27
2018-11-03T12:52:36.802Z,30.17
2018-11-03T12:55:06.446Z,29.57
2018-11-03T12:57:34.791Z,31.67
2018-11-03T13:00:03.129Z,32.67
2018-11-03T13:02:31.456Z,31.07
2018-11-03T13:04:59.837Z,29.60
2018-11-03T13:07:28.085Z,30.83
2018-11-03T13:09:56.386Z,29.27
2018-11-03T13:12:24.711Z,32.73
2018-11-03T13:14:53.026Z,33.43
2018-11-03T13:17:21.386Z,30.37
2018-11-03T13:19:49.741Z,29.97
2018-11-03T13:22:18.123Z,30.27
2018-11-03T13:24:46.472Z,30.83
2018-11-03T13:27:14.946Z,31.93
2018-11-03T13:29:43.546Z,61.97
2018-11-03T13:32:11.906Z,33.17
2018-11-03T13:34:40.296Z,32.43
2018-11-03T13:37:08.621Z,34.23
2018-11-03T13:39:36.915Z,32.90
2018-11-03T13:42:05.888Z,30.73
2018-11-03T13:44:34.284Z,31.10
2018-11-03T13:47:02.641Z,32.63
2018-11-03T13:49:30.950Z,33.50
2018-11-03T13:51:59.317Z,33.60
2018-11-03T13:54:27.602Z,33.93
2018-11-03T13:56:56.125Z,32.43
2018-11-03T13:59:24.400Z,35.07
2018-11-03T14:01:52.826Z,34.13
2018-11-03T14:04:21.190Z,33.43
2018-11-03T14:06:49.507Z,34.70
2018-11-03T14:09:17.893Z,36.10
2018-11-03T14:11:46.244Z,34.97
2018-11-03T14:14:14.544Z,35.50
2018-11-03T14:16:42.871Z,36.60
2018-11-03T14:19:11.176Z,140.00
2018-11-03T14:21:39.469Z,35.90
2018-11-03T14:24:07.764Z,36.30
2018-11-03T14:26:36.104Z,36.83
2018-11-03T14:29:04.725Z,37.80
2018-11-03T14:31:32.969Z,36.83
2018-11-03T14:34:01.302Z,34.60
2018-11-03T14:36:29.629Z,36.17
2018-11-03T14:38:57.920Z,35.50
2018-11-03T14:41:26.281Z,36.60
2018-11-03T14:43:54.571Z,38.00
2018-11-03T14:46:22.900Z,36.07
2018-11-03T14:48:51.468Z,37.37
2018-11-03T14:51:19.775Z,37.43
2018-11-03T14:53:48.084Z,36.97
2018-11-03T14:56:16.467Z,39.40
2018-11-03T14:58:44.780Z,37.17
2018-11-03T15:01:13.074Z,37.93
2018-11-03T15:03:41.389Z,37.17
2018-11-03T15:06:09.720Z,38.37
2018-11-03T15:08:38.113Z,37.03
2018-11-03T15:11:06.408Z,38.03
2018-11-03T15:13:34.704Z,37.13
2018-11-03T15:16:03.007Z,38.47
2018-11-03T15:18:31.329Z,37.43
2018-11-03T15:20:59.627Z,37.17
2018-11-03T15:23:27.943Z,37.17
2018-11-03T15:25:56.370Z,40.10
2018-11-03T15:28:25.030Z,73.93
2018-11-03T15:30:53.336Z,40.50
2018-11-03T15:33:21.756Z,41.63
2018-11-03T15:35:50.045Z,40.10
2018-11-03T15:38:18.348Z,42.13
2018-11-03T15:40:46.664Z,42.20
2018-11-03T15:43:14.960Z,40.63
2018-11-03T15:45:43.245Z,42.53
2018-11-03T15:48:11.553Z,41.93
2018-11-03T15:50:45.289Z,42.33
2018-11-03T15:53:13.621Z,40.57
2018-11-03T15:55:41.896Z,42.63
2018-11-03T15:58:10.194Z,41.63
2018-11-03T16:00:38.581Z,40.57
2018-11-03T16:03:06.533Z,42.60
2018-11-03T16:05:34.812Z,43.53
2018-11-03T16:08:03.128Z,42.90
2018-11-03T16:10:31.417Z,43.37
2018-11-03T16:12:59.697Z,42.87
2018-11-03T16:15:28.032Z,44.00
2018-11-03T16:17:56.313Z,44.07
2018-11-03T16:20:24.593Z,42.77
2018-11-03T16:22:53.511Z,43.60
2018-11-03T16:25:21.734Z,45.40
2018-11-03T16:27:50.017Z,43.63
2018-11-03T16:30:18.385Z,45.60
2018-11-03T16:32:46.785Z,45.93
2018-11-03T16:35:15.014Z,44.43
2018-11-03T16:37:43.775Z,43.80
2018-11-03T16:40:13.373Z,42.97
2018-11-03T16:42:42.342Z,43.50
2018-11-03T16:45:12.354Z,45.20
2018-11-03T16:47:41.417Z,44.17
2018-11-03T16:50:11.289Z,44.50
2018-11-03T16:52:40.011Z,57.20
2018-11-03T16:55:08.853Z,51.40
2018-11-03T16:57:37.724Z,44.07
2018-11-03T17:00:07.776Z,44.17
2018-11-03T17:02:36.072Z,45.47
2018-11-03T17:05:04.746Z,43.73
2018-11-03T17:07:33.056Z,44.93
2018-11-03T17:10:01.342Z,43.90
2018-11-03T17:12:29.695Z,44.90
2018-11-03T17:14:57.973Z,44.53
2018-11-03T17:17:26.260Z,43.53
2018-11-03T17:19:54.553Z,45.00
2018-11-03T17:22:22.901Z,43.57
2018-11-03T17:24:51.353Z,42.27
2018-11-03T17:27:19.624Z,43.77
2018-11-03T17:29:47.936Z,44.30
2018-11-03T17:32:16.219Z,43.70
2018-11-03T17:34:44.512Z,44.10
2018-11-03T17:37:12.836Z,46.30
2018-11-03T17:39:41.112Z,44.87
2018-11-03T17:42:09.396Z,43.87
2018-11-03T17:44:37.733Z,45.13
2018-11-03T17:47:06.333Z,44.40
2018-11-03T17:49:34.738Z,43.93
2018-11-03T17:52:03.049Z,44.10
2018-11-03T17:54:31.356Z,43.60
2018-11-03T17:56:59.657Z,44.93
2018-11-03T17:59:28.346Z,45.10
2018-11-03T18:01:56.635Z,45.17
2018-11-03T18:04:24.951Z,45.07
2018-11-03T18:06:53.272Z,45.27
2018-11-03T18:09:21.570Z,45.33
2018-11-03T18:11:49.853Z,43.97
2018-11-03T18:14:18.188Z,44.23
2018-11-03T18:16:46.530Z,44.17
2018-11-03T18:19:14.823Z,43.83
2018-11-03T18:21:43.237Z,44.27
2018-11-03T18:24:11.521Z,69.60
2018-11-03T18:26:39.820Z,47.93
2018-11-03T18:29:08.145Z,44.03
2018-11-03T18:31:36.424Z,45.20
2018-11-03T18:34:05.077Z,43.57
2018-11-03T18:36:33.401Z,44.13
2018-11-03T18:39:01.706Z,44.83
2018-11-03T18:41:30.009Z,42.83
2018-11-03T18:43:58.321Z,43.83
2018-11-03T18:46:26.714Z,45.20
2018-11-03T18:48:54.944Z,45.50
2018-11-03T18:51:23.297Z,45.27
2018-11-03T18:53:51.601Z,45.97
2018-11-03T18:56:19.917Z,43.57
2018-11-03T18:58:48.242Z,42.73
2018-11-03T19:01:16.517Z,43.37
2018-11-03T19:03:44.806Z,44.23
2018-11-03T19:06:13.124Z,43.90
2018-11-03T19:08:41.413Z,43.63
2018-11-03T19:11:10.149Z,43.57
2018-11-03T19:13:38.673Z,45.40
2018-11-03T19:16:06.992Z,47.03
2018-11-03T19:18:35.281Z,45.87
2018-11-03T19:21:03.616Z,43.40
2018-11-03T19:23:31.926Z,45.13
2018-11-03T19:26:00.213Z,43.70
2018-11-03T19:28:28.546Z,42.97
2018-11-03T19:30:56.844Z,45.73
2018-11-03T19:33:25.142Z,43.17
2018-11-03T19:35:53.480Z,44.97
2018-11-03T19:38:21.845Z,44.33
2018-11-03T19:40:50.146Z,43.07
2018-11-03T19:43:18.489Z,45.73
2018-11-03T19:45:46.769Z,43.97
2018-11-03T19:48:15.586Z,43.80
2018-11-03T19:50:43.840Z,45.63
2018-11-03T19:53:12.121Z,45.57
2018-11-03T19:55:40.420Z,47.23
2018-11-03T19:58:08.749Z,43.63
2018-11-03T20:00:37.068Z,44.43
2018-11-03T20:03:05.743Z,44.90
2018-11-03T20:05:34.069Z,44.47
2018-11-03T20:08:02.419Z,46.73
2018-11-03T20:10:30.656Z,46.10
2018-11-03T20:12:58.985Z,44.13
2018-11-03T20:15:27.276Z,44.40
2018-11-03T20:17:55.650Z,43.57
2018-11-03T20:20:23.944Z,41.23
2018-11-03T20:22:52.234Z,41.57
2018-11-03T20:25:20.514Z,43.40
2018-11-03T20:27:48.838Z,44.43
2018-11-03T20:30:17.537Z,44.93
2018-11-03T20:32:46.695Z,43.87
2018-11-03T20:35:15.034Z,41.77
2018-11-03T20:37:43.323Z,42.93
2018-11-03T20:40:12.845Z,43.73
2018-11-03T20:45:14.629Z,43.70
2018-11-03T20:47:42.908Z,43.77
2018-11-03T20:50:13.629Z,42.60
2018-11-03T20:52:41.924Z,106.07
2018-11-03T20:55:10.956Z,46.47
2018-11-03T20:57:39.274Z,44.87
2018-11-03T21:00:09.644Z,44.43
2018-11-03T21:02:37.930Z,43.70
2018-11-03T21:05:07.145Z,43.50
2018-11-03T21:07:35.456Z,44.43
2018-11-03T21:10:03.810Z,45.03
2018-11-03T21:12:32.254Z,44.00
2018-11-03T21:15:00.538Z,42.10
2018-11-03T21:17:28.846Z,43.33
2018-11-03T21:19:57.177Z,43.50
2018-11-03T21:22:25.478Z,43.90
2018-11-03T21:24:53.777Z,43.47
2018-11-03T21:27:22.100Z,43.70
2018-11-03T21:29:50.438Z,45.47
2018-11-03T21:32:18.838Z,42.87
2018-11-03T21:34:47.028Z,44.87
2018-11-03T21:37:15.316Z,42.97
2018-11-03T21:39:43.600Z,42.97
2018-11-03T21:42:11.924Z,45.17
2018-11-03T21:44:40.208Z,44.03
2018-11-03T21:47:08.584Z,44.83
2018-11-03T21:49:37.057Z,43.93
2018-11-03T21:52:05.733Z,44.13
2018-11-03T21:54:34.017Z,42.57
2018-11-03T21:57:02.344Z,42.03
2018-11-03T21:59:30.638Z,41.87
2018-11-03T22:01:58.918Z,41.30
2018-11-03T22:04:27.261Z,39.87
2018-11-03T22:06:55.558Z,39.33
2018-11-03T22:09:23.842Z,39.63
2018-11-03T22:11:52.172Z,41.20
2018-11-03T22:14:20.460Z,40.83
2018-11-03T22:16:48.749Z,39.97
2018-11-03T22:19:17.076Z,39.20
2018-11-03T22:21:45.379Z,40.33
2018-11-03T22:24:13.655Z,39.33
2018-11-03T22:26:41.972Z,40.90
2018-11-03T22:29:10.298Z,39.50
2018-11-03T22:31:38.590Z,40.50
2018-11-03T22:34:06.976Z,39.70
2018-11-03T22:36:35.277Z,40.10
2018-11-03T22:39:03.757Z,41.30
2018-11-03T22:41:32.120Z,39.43
2018-11-03T22:44:00.408Z,40.03
2018-11-03T22:46:28.705Z,39.87
2018-11-03T22:48:57.026Z,41.30
2018-11-03T22:51:25.342Z,40.73
2018-11-03T22:53:53.606Z,40.30
2018-11-03T22:56:21.913Z,39.20
2018-11-03T22:58:50.201Z,40.17
2018-11-03T23:01:18.497Z,36.40
2018-11-03T23:03:46.825Z,38.20
2018-11-03T23:06:15.124Z,37.50
2018-11-03T23:08:43.461Z,38.63
2018-11-03T23:11:11.885Z,37.17
2018-11-03T23:13:40.307Z,36.97
2018-11-03T23:16:08.589Z,37.30
2018-11-03T23:18:37.124Z,37.67
2018-11-03T23:21:05.494Z,36.73
2018-11-03T23:23:33.885Z,36.90
2018-11-03T23:26:02.249Z,36.67
2018-11-03T23:28:30.696Z,36.73
2018-11-03T23:30:58.985Z,34.57
2018-11-03T23:33:27.501Z,35.63
2018-11-03T23:35:55.805Z,36.00
2018-11-03T23:38:24.105Z,34.90
2018-11-03T23:40:52.408Z,35.10
2018-11-03T23:43:20.741Z,36.13
2018-11-03T23:45:49.029Z,36.97
2018-11-03T23:48:18.013Z,35.33
2018-11-03T23:50:46.449Z,35.77
2018-11-03T23:53:14.834Z,37.93
2018-11-03T23:55:43.272Z,37.00
2018-11-03T23:58:11.544Z,36.43
